sensor_id;sensor_type;location;lat;lon;timestamp;P1;durP1;ratioP1;P2;durP2;ratioP2
63157;SDS011;49381;49.338;8.794;2022-07-15T00:00:25;6.13;;;2.28;;
63157;SDS011;49381;49.338;8.794;2022-07-15T00:02:26;5.15;;;2.80;;
63157;SDS011;49381;49.338;8.794;2022-07-15T00:04:26;6.43;;;2.30;;
63157;SDS011;49381;49.338;8.794;2022-07-15T00:06:27;4.35;;;2.50;;
63157;SDS011;49381;49.338;8.794;2022-07-15T00:08:27;5.75;;;3.10;;
63157;SDS011;49381;49.338;8.794;2022-07-15T00:10:27;7.53;;;2.58;;
63157;SDS011;49381;49.338;8.794;2022-07-15T00:12:29;6.43;;;2.65;;
63157;SDS011;49381;49.338;8.794;2022-07-15T00:14:30;6.00;;;2.90;;
63157;SDS011;49381;49.338;8.794;2022-07-15T00:16:30;5.07;;;2.72;;
63157;SDS011;49381;49.338;8.794;2022-07-15T00:18:30;4.55;;;3.15;;
63157;SDS011;49381;49.338;8.794;2022-07-15T00:20:31;4.55;;;3.00;;
63157;SDS011;49381;49.338;8.794;2022-07-15T00:22:32;6.72;;;2.80;;
63157;SDS011;49381;49.338;8.794;2022-07-15T00:24:32;6.55;;;2.40;;
63157;SDS011;49381;49.338;8.794;2022-07-15T00:26:33;7.00;;;2.83;;
63157;SDS011;49381;49.338;8.794;2022-07-15T00:28:34;6.18;;;2.83;;
63157;SDS011;49381;49.338;8.794;2022-07-15T00:30:36;5.57;;;2.90;;
63157;SDS011;49381;49.338;8.794;2022-07-15T00:32:38;5.43;;;2.40;;
63157;SDS011;49381;49.338;8.794;2022-07-15T00:34:38;3.75;;;2.55;;
63157;SDS011;49381;49.338;8.794;2022-07-15T00:36:38;4.40;;;2.45;;
63157;SDS011;49381;49.338;8.794;2022-07-15T00:38:39;5.65;;;2.72;;
63157;SDS011;49381;49.338;8.794;2022-07-15T00:40:39;9.38;;;2.83;;
63157;SDS011;49381;49.338;8.794;2022-07-15T00:42:40;4.60;;;2.67;;
63157;SDS011;49381;49.338;8.794;2022-07-15T00:44:42;6.93;;;2.92;;
63157;SDS011;49381;49.338;8.794;2022-07-15T00:46:42;5.10;;;2.78;;
63157;SDS011;49381;49.338;8.794;2022-07-15T00:48:43;4.40;;;2.78;;
63157;SDS011;49381;49.338;8.794;2022-07-15T00:50:43;3.92;;;2.50;;
63157;SDS011;49381;49.338;8.794;2022-07-15T00:52:44;4.32;;;2.60;;
63157;SDS011;49381;49.338;8.794;2022-07-15T00:54:46;10.35;;;2.58;;
63157;SDS011;49381;49.338;8.794;2022-07-15T00:56:50;6.15;;;2.75;;
63157;SDS011;49381;49.338;8.794;2022-07-15T00:58:51;6.20;;;2.60;;
63157;SDS011;49381;49.338;8.794;2022-07-15T01:00:54;4.53;;;2.40;;
63157;SDS011;49381;49.338;8.794;2022-07-15T01:02:58;6.15;;;2.60;;
63157;SDS011;49381;49.338;8.794;2022-07-15T01:05:00;4.78;;;2.60;;
63157;SDS011;49381;49.338;8.794;2022-07-15T01:07:03;3.80;;;2.45;;
63157;SDS011;49381;49.338;8.794;2022-07-15T01:09:03;4.28;;;2.33;;
63157;SDS011;49381;49.338;8.794;2022-07-15T01:11:04;4.00;;;2.40;;
63157;SDS011;49381;49.338;8.794;2022-07-15T01:13:04;6.72;;;2.67;;
63157;SDS011;49381;49.338;8.794;2022-07-15T01:15:05;6.28;;;2.25;;
63157;SDS011;49381;49.338;8.794;2022-07-15T01:17:09;4.20;;;2.33;;
63157;SDS011;49381;49.338;8.794;2022-07-15T01:19:10;6.72;;;2.85;;
63157;SDS011;49381;49.338;8.794;2022-07-15T01:21:11;5.55;;;2.97;;
63157;SDS011;49381;49.338;8.794;2022-07-15T01:23:12;5.70;;;2.60;;
63157;SDS011;49381;49.338;8.794;2022-07-15T01:25:12;5.53;;;2.60;;
63157;SDS011;49381;49.338;8.794;2022-07-15T01:27:12;5.65;;;3.17;;
63157;SDS011;49381;49.338;8.794;2022-07-15T01:29:12;6.88;;;2.80;;
63157;SDS011;49381;49.338;8.794;2022-07-15T01:31:13;7.15;;;3.25;;
63157;SDS011;49381;49.338;8.794;2022-07-15T01:33:13;5.97;;;3.13;;
63157;SDS011;49381;49.338;8.794;2022-07-15T01:35:14;3.80;;;2.60;;
63157;SDS011;49381;49.338;8.794;2022-07-15T01:37:15;4.38;;;2.70;;
63157;SDS011;49381;49.338;8.794;2022-07-15T01:39:16;5.45;;;2.80;;
63157;SDS011;49381;49.338;8.794;2022-07-15T01:41:16;5.20;;;2.63;;
63157;SDS011;49381;49.338;8.794;2022-07-15T01:43:17;6.07;;;2.90;;
63157;SDS011;49381;49.338;8.794;2022-07-15T01:45:17;5.53;;;2.78;;
63157;SDS011;49381;49.338;8.794;2022-07-15T01:47:17;5.85;;;2.67;;
63157;SDS011;49381;49.338;8.794;2022-07-15T01:49:18;5.45;;;2.92;;
63157;SDS011;49381;49.338;8.794;2022-07-15T01:51:18;4.55;;;2.63;;
63157;SDS011;49381;49.338;8.794;2022-07-15T01:53:20;3.42;;;2.45;;
63157;SDS011;49381;49.338;8.794;2022-07-15T01:55:20;5.10;;;2.47;;
63157;SDS011;49381;49.338;8.794;2022-07-15T01:57:20;5.85;;;2.60;;
63157;SDS011;49381;49.338;8.794;2022-07-15T01:59:21;5.47;;;2.83;;
63157;SDS011;49381;49.338;8.794;2022-07-15T02:01:22;5.88;;;3.00;;
63157;SDS011;49381;49.338;8.794;2022-07-15T02:03:22;6.35;;;3.08;;
63157;SDS011;49381;49.338;8.794;2022-07-15T02:05:23;6.35;;;2.85;;
63157;SDS011;49381;49.338;8.794;2022-07-15T02:07:23;6.03;;;2.92;;
63157;SDS011;49381;49.338;8.794;2022-07-15T02:09:25;7.15;;;2.88;;
63157;SDS011;49381;49.338;8.794;2022-07-15T02:11:25;3.97;;;2.30;;
63157;SDS011;49381;49.338;8.794;2022-07-15T02:13:25;4.93;;;2.75;;
63157;SDS011;49381;49.338;8.794;2022-07-15T02:15:25;6.32;;;3.17;;
63157;SDS011;49381;49.338;8.794;2022-07-15T02:17:26;5.55;;;2.90;;
63157;SDS011;49381;49.338;8.794;2022-07-15T02:19:26;4.05;;;2.58;;
63157;SDS011;49381;49.338;8.794;2022-07-15T02:21:27;6.75;;;2.72;;
63157;SDS011;49381;49.338;8.794;2022-07-15T02:23:27;6.00;;;3.13;;
63157;SDS011;49381;49.338;8.794;2022-07-15T02:25:30;4.88;;;2.95;;
63157;SDS011;49381;49.338;8.794;2022-07-15T02:27:32;5.55;;;2.90;;
63157;SDS011;49381;49.338;8.794;2022-07-15T02:29:32;5.13;;;2.65;;
63157;SDS011;49381;49.338;8.794;2022-07-15T02:31:32;5.03;;;2.83;;
63157;SDS011;49381;49.338;8.794;2022-07-15T02:33:33;5.25;;;2.80;;
63157;SDS011;49381;49.338;8.794;2022-07-15T02:35:33;9.48;;;3.03;;
63157;SDS011;49381;49.338;8.794;2022-07-15T02:37:34;5.45;;;2.72;;
63157;SDS011;49381;49.338;8.794;2022-07-15T02:39:34;4.47;;;2.75;;
63157;SDS011;49381;49.338;8.794;2022-07-15T02:41:35;6.68;;;2.95;;
63157;SDS011;49381;49.338;8.794;2022-07-15T02:43:36;5.45;;;2.83;;
63157;SDS011;49381;49.338;8.794;2022-07-15T02:45:36;5.18;;;2.70;;
63157;SDS011;49381;49.338;8.794;2022-07-15T02:47:37;5.28;;;2.80;;
63157;SDS011;49381;49.338;8.794;2022-07-15T02:49:37;5.22;;;3.28;;
63157;SDS011;49381;49.338;8.794;2022-07-15T02:51:38;7.28;;;2.85;;
63157;SDS011;49381;49.338;8.794;2022-07-15T02:53:38;3.63;;;2.65;;
63157;SDS011;49381;49.338;8.794;2022-07-15T02:55:38;5.57;;;2.50;;
63157;SDS011;49381;49.338;8.794;2022-07-15T02:57:40;5.50;;;2.88;;
63157;SDS011;49381;49.338;8.794;2022-07-15T02:59:41;4.43;;;2.50;;
63157;SDS011;49381;49.338;8.794;2022-07-15T03:01:41;9.23;;;2.88;;
63157;SDS011;49381;49.338;8.794;2022-07-15T03:03:42;5.95;;;2.60;;
63157;SDS011;49381;49.338;8.794;2022-07-15T03:05:42;5.90;;;3.03;;
63157;SDS011;49381;49.338;8.794;2022-07-15T03:07:43;4.78;;;2.83;;
63157;SDS011;49381;49.338;8.794;2022-07-15T03:09:43;3.30;;;2.55;;
63157;SDS011;49381;49.338;8.794;2022-07-15T03:11:43;5.00;;;2.83;;
63157;SDS011;49381;49.338;8.794;2022-07-15T03:13:45;10.77;;;3.20;;
63157;SDS011;49381;49.338;8.794;2022-07-15T03:15:46;5.78;;;3.10;;
63157;SDS011;49381;49.338;8.794;2022-07-15T03:17:46;5.43;;;2.95;;
63157;SDS011;49381;49.338;8.794;2022-07-15T03:19:46;5.28;;;2.97;;
63157;SDS011;49381;49.338;8.794;2022-07-15T03:21:47;4.88;;;3.15;;
63157;SDS011;49381;49.338;8.794;2022-07-15T03:23:47;5.50;;;2.95;;
63157;SDS011;49381;49.338;8.794;2022-07-15T03:25:47;4.78;;;3.00;;
63157;SDS011;49381;49.338;8.794;2022-07-15T03:27:48;4.35;;;2.55;;
63157;SDS011;49381;49.338;8.794;2022-07-15T03:29:49;5.47;;;2.75;;
63157;SDS011;49381;49.338;8.794;2022-07-15T03:31:49;5.03;;;2.67;;
63157;SDS011;49381;49.338;8.794;2022-07-15T03:33:50;6.22;;;2.80;;
63157;SDS011;49381;49.338;8.794;2022-07-15T03:35:50;5.07;;;2.88;;
63157;SDS011;49381;49.338;8.794;2022-07-15T03:37:51;5.60;;;3.10;;
63157;SDS011;49381;49.338;8.794;2022-07-15T03:39:51;5.88;;;3.13;;
63157;SDS011;49381;49.338;8.794;2022-07-15T03:41:51;8.23;;;2.80;;
63157;SDS011;49381;49.338;8.794;2022-07-15T03:43:52;6.93;;;3.00;;
63157;SDS011;49381;49.338;8.794;2022-07-15T03:45:53;5.25;;;2.80;;
63157;SDS011;49381;49.338;8.794;2022-07-15T03:47:53;6.15;;;3.15;;
63157;SDS011;49381;49.338;8.794;2022-07-15T03:49:54;5.05;;;2.58;;
63157;SDS011;49381;49.338;8.794;2022-07-15T03:51:54;6.38;;;2.92;;
63157;SDS011;49381;49.338;8.794;2022-07-15T03:53:54;4.25;;;2.45;;
63157;SDS011;49381;49.338;8.794;2022-07-15T03:55:55;6.38;;;2.80;;
63157;SDS011;49381;49.338;8.794;2022-07-15T03:57:55;4.13;;;2.50;;
63157;SDS011;49381;49.338;8.794;2022-07-15T03:59:55;4.55;;;2.60;;
63157;SDS011;49381;49.338;8.794;2022-07-15T04:01:57;5.70;;;2.65;;
63157;SDS011;49381;49.338;8.794;2022-07-15T04:03:58;5.30;;;2.97;;
63157;SDS011;49381;49.338;8.794;2022-07-15T04:05:58;7.70;;;3.20;;
63157;SDS011;49381;49.338;8.794;2022-07-15T04:07:58;6.07;;;3.28;;
63157;SDS011;49381;49.338;8.794;2022-07-15T04:09:59;6.10;;;2.92;;
63157;SDS011;49381;49.338;8.794;2022-07-15T04:11:59;5.13;;;2.67;;
63157;SDS011;49381;49.338;8.794;2022-07-15T04:13:59;6.28;;;2.88;;
63157;SDS011;49381;49.338;8.794;2022-07-15T04:16:00;4.85;;;2.70;;
63157;SDS011;49381;49.338;8.794;2022-07-15T04:18:02;7.70;;;2.78;;
63157;SDS011;49381;49.338;8.794;2022-07-15T04:20:02;5.32;;;2.60;;
63157;SDS011;49381;49.338;8.794;2022-07-15T04:22:03;6.70;;;3.10;;
63157;SDS011;49381;49.338;8.794;2022-07-15T04:24:04;5.35;;;3.10;;
63157;SDS011;49381;49.338;8.794;2022-07-15T04:26:05;6.00;;;2.50;;
63157;SDS011;49381;49.338;8.794;2022-07-15T04:28:05;7.40;;;2.95;;
63157;SDS011;49381;49.338;8.794;2022-07-15T04:30:06;5.47;;;2.78;;
63157;SDS011;49381;49.338;8.794;2022-07-15T04:32:07;5.05;;;2.40;;
63157;SDS011;49381;49.338;8.794;2022-07-15T04:34:08;6.38;;;2.90;;
63157;SDS011;49381;49.338;8.794;2022-07-15T04:36:09;6.82;;;3.45;;
63157;SDS011;49381;49.338;8.794;2022-07-15T04:38:09;5.43;;;2.42;;
63157;SDS011;49381;49.338;8.794;2022-07-15T04:40:10;4.75;;;2.30;;
63157;SDS011;49381;49.338;8.794;2022-07-15T04:42:11;8.23;;;3.03;;
63157;SDS011;49381;49.338;8.794;2022-07-15T04:44:11;6.85;;;3.25;;
63157;SDS011;49381;49.338;8.794;2022-07-15T04:46:12;5.32;;;2.42;;
63157;SDS011;49381;49.338;8.794;2022-07-15T04:48:12;6.68;;;2.78;;
63157;SDS011;49381;49.338;8.794;2022-07-15T04:50:14;5.10;;;2.80;;
63157;SDS011;49381;49.338;8.794;2022-07-15T04:52:14;6.32;;;2.60;;
63157;SDS011;49381;49.338;8.794;2022-07-15T04:54:15;5.15;;;2.35;;
63157;SDS011;49381;49.338;8.794;2022-07-15T04:56:15;3.90;;;2.30;;
63157;SDS011;49381;49.338;8.794;2022-07-15T04:58:15;4.78;;;2.10;;
63157;SDS011;49381;49.338;8.794;2022-07-15T05:00:16;5.35;;;2.13;;
63157;SDS011;49381;49.338;8.794;2022-07-15T05:02:16;5.15;;;2.65;;
63157;SDS011;49381;49.338;8.794;2022-07-15T05:04:17;5.35;;;2.10;;
63157;SDS011;49381;49.338;8.794;2022-07-15T05:06:18;6.20;;;2.40;;
63157;SDS011;49381;49.338;8.794;2022-07-15T05:08:19;6.55;;;2.40;;
63157;SDS011;49381;49.338;8.794;2022-07-15T05:10:19;6.10;;;2.45;;
63157;SDS011;49381;49.338;8.794;2022-07-15T05:12:19;3.42;;;2.03;;
63157;SDS011;49381;49.338;8.794;2022-07-15T05:14:20;5.70;;;2.47;;
63157;SDS011;49381;49.338;8.794;2022-07-15T05:16:20;3.58;;;2.08;;
63157;SDS011;49381;49.338;8.794;2022-07-15T05:18:20;4.47;;;1.90;;
63157;SDS011;49381;49.338;8.794;2022-07-15T05:20:21;6.85;;;2.00;;
63157;SDS011;49381;49.338;8.794;2022-07-15T05:22:23;3.80;;;1.90;;
63157;SDS011;49381;49.338;8.794;2022-07-15T05:24:23;4.10;;;1.63;;
63157;SDS011;49381;49.338;8.794;2022-07-15T05:26:24;4.82;;;2.17;;
63157;SDS011;49381;49.338;8.794;2022-07-15T05:28:24;2.67;;;1.55;;
63157;SDS011;49381;49.338;8.794;2022-07-15T05:30:25;2.35;;;1.90;;
63157;SDS011;49381;49.338;8.794;2022-07-15T05:32:25;3.63;;;1.73;;
63157;SDS011;49381;49.338;8.794;2022-07-15T05:34:25;3.53;;;2.10;;
63157;SDS011;49381;49.338;8.794;2022-07-15T05:36:25;6.32;;;2.10;;
63157;SDS011;49381;49.338;8.794;2022-07-15T05:38:27;6.47;;;2.00;;
63157;SDS011;49381;49.338;8.794;2022-07-15T05:40:28;7.78;;;2.67;;
63157;SDS011;49381;49.338;8.794;2022-07-15T05:42:28;7.65;;;2.45;;
63157;SDS011;49381;49.338;8.794;2022-07-15T05:44:29;5.25;;;2.35;;
63157;SDS011;49381;49.338;8.794;2022-07-15T05:46:29;5.85;;;2.00;;
63157;SDS011;49381;49.338;8.794;2022-07-15T05:48:29;4.38;;;2.03;;
63157;SDS011;49381;49.338;8.794;2022-07-15T05:50:30;4.93;;;2.22;;
63157;SDS011;49381;49.338;8.794;2022-07-15T05:52:30;3.72;;;2.00;;
63157;SDS011;49381;49.338;8.794;2022-07-15T05:54:32;2.63;;;1.70;;
63157;SDS011;49381;49.338;8.794;2022-07-15T05:56:32;4.90;;;1.90;;
63157;SDS011;49381;49.338;8.794;2022-07-15T05:58:32;4.05;;;1.60;;
63157;SDS011;49381;49.338;8.794;2022-07-15T06:00:33;8.00;;;1.88;;
63157;SDS011;49381;49.338;8.794;2022-07-15T06:02:34;5.82;;;2.08;;
63157;SDS011;49381;49.338;8.794;2022-07-15T06:04:34;4.43;;;2.03;;
63157;SDS011;49381;49.338;8.794;2022-07-15T06:06:35;2.38;;;1.60;;
63157;SDS011;49381;49.338;8.794;2022-07-15T06:08:35;6.35;;;2.30;;
63157;SDS011;49381;49.338;8.794;2022-07-15T06:10:37;5.18;;;2.30;;
63157;SDS011;49381;49.338;8.794;2022-07-15T06:12:38;5.10;;;2.10;;
63157;SDS011;49381;49.338;8.794;2022-07-15T06:14:38;4.70;;;2.10;;
63157;SDS011;49381;49.338;8.794;2022-07-15T06:16:38;3.92;;;1.70;;
63157;SDS011;49381;49.338;8.794;2022-07-15T06:18:39;2.53;;;1.63;;
63157;SDS011;49381;49.338;8.794;2022-07-15T06:20:39;4.38;;;1.70;;
63157;SDS011;49381;49.338;8.794;2022-07-15T06:22:39;5.85;;;1.92;;
63157;SDS011;49381;49.338;8.794;2022-07-15T06:24:40;4.25;;;1.98;;
63157;SDS011;49381;49.338;8.794;2022-07-15T06:26:41;2.97;;;1.55;;
63157;SDS011;49381;49.338;8.794;2022-07-15T06:28:42;5.93;;;2.00;;
63157;SDS011;49381;49.338;8.794;2022-07-15T06:30:42;2.95;;;1.95;;
63157;SDS011;49381;49.338;8.794;2022-07-15T06:32:42;4.20;;;1.70;;
63157;SDS011;49381;49.338;8.794;2022-07-15T06:34:43;3.15;;;1.58;;
63157;SDS011;49381;49.338;8.794;2022-07-15T06:36:43;3.15;;;1.50;;
63157;SDS011;49381;49.338;8.794;2022-07-15T06:38:44;7.05;;;1.85;;
63157;SDS011;49381;49.338;8.794;2022-07-15T06:40:44;3.50;;;1.52;;
63157;SDS011;49381;49.338;8.794;2022-07-15T06:42:46;4.45;;;1.73;;
63157;SDS011;49381;49.338;8.794;2022-07-15T06:44:46;3.95;;;1.70;;
63157;SDS011;49381;49.338;8.794;2022-07-15T06:46:46;2.90;;;1.50;;
63157;SDS011;49381;49.338;8.794;2022-07-15T06:48:47;4.50;;;1.77;;
63157;SDS011;49381;49.338;8.794;2022-07-15T06:50:47;3.83;;;1.67;;
63157;SDS011;49381;49.338;8.794;2022-07-15T06:52:47;4.97;;;1.60;;
63157;SDS011;49381;49.338;8.794;2022-07-15T06:54:48;3.67;;;1.50;;
63157;SDS011;49381;49.338;8.794;2022-07-15T06:56:48;3.72;;;1.80;;
63157;SDS011;49381;49.338;8.794;2022-07-15T06:58:50;3.78;;;1.83;;
63157;SDS011;49381;49.338;8.794;2022-07-15T07:00:50;2.58;;;1.10;;
63157;SDS011;49381;49.338;8.794;2022-07-15T07:02:50;2.15;;;1.45;;
63157;SDS011;49381;49.338;8.794;2022-07-15T07:04:51;4.15;;;1.55;;
63157;SDS011;49381;49.338;8.794;2022-07-15T07:06:51;3.33;;;1.27;;
63157;SDS011;49381;49.338;8.794;2022-07-15T07:08:51;6.63;;;1.90;;
63157;SDS011;49381;49.338;8.794;2022-07-15T07:10:52;4.18;;;1.35;;
63157;SDS011;49381;49.338;8.794;2022-07-15T07:12:52;5.47;;;1.60;;
63157;SDS011;49381;49.338;8.794;2022-07-15T07:14:54;2.67;;;1.30;;
63157;SDS011;49381;49.338;8.794;2022-07-15T07:16:54;2.33;;;1.48;;
63157;SDS011;49381;49.338;8.794;2022-07-15T07:18:55;3.60;;;1.50;;
63157;SDS011;49381;49.338;8.794;2022-07-15T07:20:55;1.58;;;0.98;;
63157;SDS011;49381;49.338;8.794;2022-07-15T07:22:55;4.32;;;1.33;;
63157;SDS011;49381;49.338;8.794;2022-07-15T07:24:56;4.65;;;1.50;;
63157;SDS011;49381;49.338;8.794;2022-07-15T07:26:56;3.30;;;1.15;;
63157;SDS011;49381;49.338;8.794;2022-07-15T07:28:56;2.00;;;1.00;;
63157;SDS011;49381;49.338;8.794;2022-07-15T07:30:58;3.00;;;1.20;;
63157;SDS011;49381;49.338;8.794;2022-07-15T07:32:58;3.40;;;0.90;;
63157;SDS011;49381;49.338;8.794;2022-07-15T07:34:59;2.22;;;1.00;;
63157;SDS011;49381;49.338;8.794;2022-07-15T07:36:59;1.45;;;0.65;;
63157;SDS011;49381;49.338;8.794;2022-07-15T07:38:59;3.60;;;1.00;;
63157;SDS011;49381;49.338;8.794;2022-07-15T07:41:00;1.73;;;1.08;;
63157;SDS011;49381;49.338;8.794;2022-07-15T07:43:01;4.90;;;0.98;;
63157;SDS011;49381;49.338;8.794;2022-07-15T07:45:01;3.60;;;1.00;;
63157;SDS011;49381;49.338;8.794;2022-07-15T07:47:03;2.88;;;1.00;;
63157;SDS011;49381;49.338;8.794;2022-07-15T07:49:03;4.65;;;1.15;;
63157;SDS011;49381;49.338;8.794;2022-07-15T07:51:04;6.70;;;1.70;;
63157;SDS011;49381;49.338;8.794;2022-07-15T07:53:05;5.93;;;1.08;;
63157;SDS011;49381;49.338;8.794;2022-07-15T07:55:06;3.22;;;1.05;;
63157;SDS011;49381;49.338;8.794;2022-07-15T07:57:07;5.53;;;1.15;;
63157;SDS011;49381;49.338;8.794;2022-07-15T07:59:07;3.33;;;0.90;;
63157;SDS011;49381;49.338;8.794;2022-07-15T08:01:08;2.33;;;1.15;;
63157;SDS011;49381;49.338;8.794;2022-07-15T08:03:09;2.60;;;1.10;;
63157;SDS011;49381;49.338;8.794;2022-07-15T08:05:10;4.50;;;0.90;;
63157;SDS011;49381;49.338;8.794;2022-07-15T08:07:11;3.85;;;1.02;;
63157;SDS011;49381;49.338;8.794;2022-07-15T08:09:11;3.00;;;0.98;;
63157;SDS011;49381;49.338;8.794;2022-07-15T08:11:12;3.80;;;1.15;;
63157;SDS011;49381;49.338;8.794;2022-07-15T08:13:12;1.92;;;0.98;;
63157;SDS011;49381;49.338;8.794;2022-07-15T08:15:12;3.13;;;1.38;;
63157;SDS011;49381;49.338;8.794;2022-07-15T08:17:13;4.65;;;1.40;;
63157;SDS011;49381;49.338;8.794;2022-07-15T08:19:14;3.20;;;1.30;;
63157;SDS011;49381;49.338;8.794;2022-07-15T08:21:15;4.00;;;1.20;;
63157;SDS011;49381;49.338;8.794;2022-07-15T08:23:15;2.38;;;0.93;;
63157;SDS011;49381;49.338;8.794;2022-07-15T08:25:15;4.32;;;1.20;;
63157;SDS011;49381;49.338;8.794;2022-07-15T08:27:16;2.42;;;1.15;;
63157;SDS011;49381;49.338;8.794;2022-07-15T08:29:17;2.55;;;1.08;;
63157;SDS011;49381;49.338;8.794;2022-07-15T08:31:17;6.00;;;1.20;;
63157;SDS011;49381;49.338;8.794;2022-07-15T08:33:18;3.00;;;1.20;;
63157;SDS011;49381;49.338;8.794;2022-07-15T08:35:20;3.67;;;1.10;;
63157;SDS011;49381;49.338;8.794;2022-07-15T08:37:21;3.72;;;1.17;;
63157;SDS011;49381;49.338;8.794;2022-07-15T08:39:24;2.95;;;1.05;;
63157;SDS011;49381;49.338;8.794;2022-07-15T08:41:24;2.20;;;1.08;;
63157;SDS011;49381;49.338;8.794;2022-07-15T08:43:25;2.35;;;0.90;;
63157;SDS011;49381;49.338;8.794;2022-07-15T08:45:25;3.40;;;1.30;;
63157;SDS011;49381;49.338;8.794;2022-07-15T08:47:27;2.80;;;0.98;;
63157;SDS011;49381;49.338;8.794;2022-07-15T08:49:32;2.90;;;1.30;;
63157;SDS011;49381;49.338;8.794;2022-07-15T08:51:35;4.68;;;1.55;;
63157;SDS011;49381;49.338;8.794;2022-07-15T08:53:36;2.72;;;1.05;;
63157;SDS011;49381;49.338;8.794;2022-07-15T08:55:37;3.63;;;1.25;;
63157;SDS011;49381;49.338;8.794;2022-07-15T08:57:37;2.30;;;1.25;;
63157;SDS011;49381;49.338;8.794;2022-07-15T08:59:38;3.88;;;1.00;;
63157;SDS011;49381;49.338;8.794;2022-07-15T09:01:41;4.32;;;1.35;;
63157;SDS011;49381;49.338;8.794;2022-07-15T09:03:42;3.15;;;1.10;;
63157;SDS011;49381;49.338;8.794;2022-07-15T09:05:42;3.60;;;1.20;;
63157;SDS011;49381;49.338;8.794;2022-07-15T09:07:52;3.50;;;1.10;;
63157;SDS011;49381;49.338;8.794;2022-07-15T09:09:53;5.00;;;1.23;;
63157;SDS011;49381;49.338;8.794;2022-07-15T09:11:55;4.90;;;1.33;;
63157;SDS011;49381;49.338;8.794;2022-07-15T09:13:58;3.25;;;1.05;;
63157;SDS011;49381;49.338;8.794;2022-07-15T09:16:00;2.42;;;0.98;;
63157;SDS011;49381;49.338;8.794;2022-07-15T09:18:05;1.80;;;1.13;;
63157;SDS011;49381;49.338;8.794;2022-07-15T09:20:08;3.78;;;1.10;;
63157;SDS011;49381;49.338;8.794;2022-07-15T09:22:10;4.07;;;1.27;;
63157;SDS011;49381;49.338;8.794;2022-07-15T09:24:18;5.15;;;1.40;;
63157;SDS011;49381;49.338;8.794;2022-07-15T09:26:22;2.35;;;1.23;;
63157;SDS011;49381;49.338;8.794;2022-07-15T09:28:34;3.22;;;1.20;;
63157;SDS011;49381;49.338;8.794;2022-07-15T09:30:36;2.60;;;1.15;;
63157;SDS011;49381;49.338;8.794;2022-07-15T09:32:38;3.58;;;1.20;;
63157;SDS011;49381;49.338;8.794;2022-07-15T09:34:38;4.90;;;1.70;;
63157;SDS011;49381;49.338;8.794;2022-07-15T09:37:02;5.85;;;1.20;;
63157;SDS011;49381;49.338;8.794;2022-07-15T09:39:05;4.63;;;1.08;;
63157;SDS011;49381;49.338;8.794;2022-07-15T09:41:07;3.92;;;1.25;;
63157;SDS011;49381;49.338;8.794;2022-07-15T09:43:09;5.45;;;1.33;;
63157;SDS011;49381;49.338;8.794;2022-07-15T09:45:18;2.55;;;1.25;;
63157;SDS011;49381;49.338;8.794;2022-07-15T09:47:20;4.50;;;1.08;;
63157;SDS011;49381;49.338;8.794;2022-07-15T09:49:30;8.35;;;1.30;;
63157;SDS011;49381;49.338;8.794;2022-07-15T09:51:34;6.10;;;1.60;;
63157;SDS011;49381;49.338;8.794;2022-07-15T09:53:43;5.20;;;1.30;;
63157;SDS011;49381;49.338;8.794;2022-07-15T09:55:44;6.78;;;1.50;;
63157;SDS011;49381;49.338;8.794;2022-07-15T09:57:46;4.32;;;1.30;;
63157;SDS011;49381;49.338;8.794;2022-07-15T09:59:47;1.75;;;1.30;;
63157;SDS011;49381;49.338;8.794;2022-07-15T10:01:48;3.17;;;1.27;;
63157;SDS011;49381;49.338;8.794;2022-07-15T10:03:49;3.22;;;1.30;;
63157;SDS011;49381;49.338;8.794;2022-07-15T10:05:51;2.47;;;1.40;;
63157;SDS011;49381;49.338;8.794;2022-07-15T10:07:52;4.70;;;1.65;;
63157;SDS011;49381;49.338;8.794;2022-07-15T10:09:53;3.58;;;1.27;;
63157;SDS011;49381;49.338;8.794;2022-07-15T10:11:55;1.60;;;1.05;;
63157;SDS011;49381;49.338;8.794;2022-07-15T10:16:41;3.95;;;1.55;;
63157;SDS011;49381;49.338;8.794;2022-07-15T10:19:06;4.00;;;1.33;;
63157;SDS011;49381;49.338;8.794;2022-07-15T10:21:14;3.45;;;1.30;;
63157;SDS011;49381;49.338;8.794;2022-07-15T10:23:30;3.15;;;1.30;;
63157;SDS011;49381;49.338;8.794;2022-07-15T10:25:44;4.65;;;1.50;;
63157;SDS011;49381;49.338;8.794;2022-07-15T10:27:58;4.70;;;1.35;;
63157;SDS011;49381;49.338;8.794;2022-07-15T10:30:06;3.33;;;1.20;;
63157;SDS011;49381;49.338;8.794;2022-07-15T10:32:07;4.18;;;1.35;;
63157;SDS011;49381;49.338;8.794;2022-07-15T10:34:17;2.83;;;1.40;;
63157;SDS011;49381;49.338;8.794;2022-07-15T10:36:18;5.60;;;1.60;;
63157;SDS011;49381;49.338;8.794;2022-07-15T10:38:19;3.28;;;1.40;;
63157;SDS011;49381;49.338;8.794;2022-07-15T10:40:32;3.70;;;1.65;;
63157;SDS011;49381;49.338;8.794;2022-07-15T10:42:57;2.35;;;1.20;;
63157;SDS011;49381;49.338;8.794;2022-07-15T10:45:03;5.47;;;1.90;;
63157;SDS011;49381;49.338;8.794;2022-07-15T10:47:16;5.47;;;1.88;;
63157;SDS011;49381;49.338;8.794;2022-07-15T10:49:27;5.00;;;1.60;;
63157;SDS011;49381;49.338;8.794;2022-07-15T10:53:52;3.03;;;1.30;;
63157;SDS011;49381;49.338;8.794;2022-07-15T10:55:53;6.70;;;1.65;;
63157;SDS011;49381;49.338;8.794;2022-07-15T10:57:53;6.25;;;1.80;;
63157;SDS011;49381;49.338;8.794;2022-07-15T10:59:55;6.13;;;1.20;;
63157;SDS011;49381;49.338;8.794;2022-07-15T11:02:11;4.72;;;1.40;;
63157;SDS011;49381;49.338;8.794;2022-07-15T11:04:13;3.25;;;1.40;;
63157;SDS011;49381;49.338;8.794;2022-07-15T11:06:15;3.13;;;1.27;;
63157;SDS011;49381;49.338;8.794;2022-07-15T11:10:48;5.57;;;1.42;;
63157;SDS011;49381;49.338;8.794;2022-07-15T11:12:55;3.13;;;1.20;;
63157;SDS011;49381;49.338;8.794;2022-07-15T11:15:03;4.20;;;1.42;;
63157;SDS011;49381;49.338;8.794;2022-07-15T11:17:04;4.15;;;1.88;;
63157;SDS011;49381;49.338;8.794;2022-07-15T11:19:05;5.70;;;1.80;;
63157;SDS011;49381;49.338;8.794;2022-07-15T11:21:11;2.55;;;1.30;;
63157;SDS011;49381;49.338;8.794;2022-07-15T11:23:12;3.15;;;1.27;;
63157;SDS011;49381;49.338;8.794;2022-07-15T11:25:16;6.05;;;1.60;;
63157;SDS011;49381;49.338;8.794;2022-07-15T11:27:17;3.20;;;1.40;;
63157;SDS011;49381;49.338;8.794;2022-07-15T11:29:17;3.67;;;1.63;;
63157;SDS011;49381;49.338;8.794;2022-07-15T11:31:18;4.30;;;1.20;;
63157;SDS011;49381;49.338;8.794;2022-07-15T11:33:18;3.85;;;1.48;;
63157;SDS011;49381;49.338;8.794;2022-07-15T11:35:22;7.47;;;1.90;;
63157;SDS011;49381;49.338;8.794;2022-07-15T11:37:23;4.72;;;1.80;;
63157;SDS011;49381;49.338;8.794;2022-07-15T11:39:27;4.07;;;1.60;;
63157;SDS011;49381;49.338;8.794;2022-07-15T11:41:28;2.90;;;1.50;;
63157;SDS011;49381;49.338;8.794;2022-07-15T11:43:28;3.35;;;1.23;;
63157;SDS011;49381;49.338;8.794;2022-07-15T11:45:32;3.85;;;1.10;;
63157;SDS011;49381;49.338;8.794;2022-07-15T11:47:35;5.95;;;1.58;;
63157;SDS011;49381;49.338;8.794;2022-07-15T11:49:49;3.67;;;1.63;;
63157;SDS011;49381;49.338;8.794;2022-07-15T11:51:51;5.35;;;1.60;;
63157;SDS011;49381;49.338;8.794;2022-07-15T11:53:51;6.20;;;1.70;;
63157;SDS011;49381;49.338;8.794;2022-07-15T11:55:53;5.68;;;1.70;;
63157;SDS011;49381;49.338;8.794;2022-07-15T11:57:54;4.85;;;1.50;;
63157;SDS011;49381;49.338;8.794;2022-07-15T11:59:56;2.65;;;1.50;;
63157;SDS011;49381;49.338;8.794;2022-07-15T12:02:00;3.42;;;1.58;;
63157;SDS011;49381;49.338;8.794;2022-07-15T12:04:01;4.05;;;1.70;;
63157;SDS011;49381;49.338;8.794;2022-07-15T12:06:02;3.75;;;1.55;;
63157;SDS011;49381;49.338;8.794;2022-07-15T12:08:05;3.58;;;1.50;;
63157;SDS011;49381;49.338;8.794;2022-07-15T12:10:06;5.10;;;1.60;;
63157;SDS011;49381;49.338;8.794;2022-07-15T12:12:07;3.88;;;1.50;;
63157;SDS011;49381;49.338;8.794;2022-07-15T12:14:09;5.20;;;2.03;;
63157;SDS011;49381;49.338;8.794;2022-07-15T12:16:11;3.10;;;1.50;;
63157;SDS011;49381;49.338;8.794;2022-07-15T12:18:12;3.85;;;1.50;;
63157;SDS011;49381;49.338;8.794;2022-07-15T12:20:12;4.78;;;1.70;;